sensor_id;sensor_type;location;lat;lon;timestamp;temperature;humidity
66343;DHT22;53144;51.524;5.080;2023-02-01T00:02:22;5.20;84.21
66343;DHT22;53144;51.524;5.080;2023-02-01T00:04:47;5.22;83.99
66343;DHT22;53144;51.524;5.080;2023-02-01T00:07:12;5.19;84.16
66343;DHT22;53144;51.524;5.080;2023-02-01T00:09:38;5.23;83.96
66343;DHT22;53144;51.524;5.080;2023-02-01T00:12:03;5.23;84.24
66343;DHT22;53144;51.524;5.080;2023-02-01T00:14:29;5.26;84.12
66343;DHT22;53144;51.524;5.080;2023-02-01T00:16:54;5.27;83.93
66343;DHT22;53144;51.524;5.080;2023-02-01T00:19:20;5.30;83.97
66343;DHT22;53144;51.524;5.080;2023-02-01T00:21:45;5.30;84.08
66343;DHT22;53144;51.524;5.080;2023-02-01T00:24:11;5.24;84.31
66343;DHT22;53144;51.524;5.080;2023-02-01T00:26:39;5.30;84.25
66343;DHT22;53144;51.524;5.080;2023-02-01T00:29:19;5.27;84.11
66343;DHT22;53144;51.524;5.080;2023-02-01T00:31:45;5.18;84.56
66343;DHT22;53144;51.524;5.080;2023-02-01T00:34:13;5.15;84.57
66343;DHT22;53144;51.524;5.080;2023-02-01T00:36:39;5.06;84.94
66343;DHT22;53144;51.524;5.080;2023-02-01T00:39:04;5.03;84.76
66343;DHT22;53144;51.524;5.080;2023-02-01T00:41:30;5.05;84.96
66343;DHT22;53144;51.524;5.080;2023-02-01T00:43:55;5.02;84.87
66343;DHT22;53144;51.524;5.080;2023-02-01T00:46:21;5.02;84.82
66343;DHT22;53144;51.524;5.080;2023-02-01T00:48:47;4.99;84.82
66343;DHT22;53144;51.524;5.080;2023-02-01T00:51:16;5.13;84.34
66343;DHT22;53144;51.524;5.080;2023-02-01T00:53:41;5.08;84.44
66343;DHT22;53144;51.524;5.080;2023-02-01T00:56:08;5.16;84.33
66343;DHT22;53144;51.524;5.080;2023-02-01T00:58:34;5.18;84.08
66343;DHT22;53144;51.524;5.080;2023-02-01T01:01:17;5.15;84.46
66343;DHT22;53144;51.524;5.080;2023-02-01T01:03:45;5.15;84.25
66343;DHT22;53144;51.524;5.080;2023-02-01T01:06:16;5.22;84.05
66343;DHT22;53144;51.524;5.080;2023-02-01T01:08:43;5.26;83.92
66343;DHT22;53144;51.524;5.080;2023-02-01T01:11:11;5.26;83.75
66343;DHT22;53144;51.524;5.080;2023-02-01T01:13:37;5.22;83.75
66343;DHT22;53144;51.524;5.080;2023-02-01T01:16:04;5.19;83.89
66343;DHT22;53144;51.524;5.080;2023-02-01T01:18:31;5.20;83.72
66343;DHT22;53144;51.524;5.080;2023-02-01T01:20:57;5.23;83.50
66343;DHT22;53144;51.524;5.080;2023-02-01T01:23:23;5.18;84.03
66343;DHT22;53144;51.524;5.080;2023-02-01T01:25:48;5.09;84.29
66343;DHT22;53144;51.524;5.080;2023-02-01T01:28:13;5.05;84.62
66343;DHT22;53144;51.524;5.080;2023-02-01T01:30:39;5.13;84.80
66343;DHT22;53144;51.524;5.080;2023-02-01T01:33:04;5.27;85.17
66343;DHT22;53144;51.524;5.080;2023-02-01T01:35:31;5.24;85.38
66343;DHT22;53144;51.524;5.080;2023-02-01T01:37:57;5.18;85.98
66343;DHT22;53144;51.524;5.080;2023-02-01T01:40:23;5.26;86.34
66343;DHT22;53144;51.524;5.080;2023-02-01T01:42:48;5.15;86.73
66343;DHT22;53144;51.524;5.080;2023-02-01T01:45:29;5.16;86.91
66343;DHT22;53144;51.524;5.080;2023-02-01T01:48:00;5.24;87.08
66343;DHT22;53144;51.524;5.080;2023-02-01T01:51:06;5.26;87.11
66343;DHT22;53144;51.524;5.080;2023-02-01T01:53:38;5.18;87.53
66343;DHT22;53144;51.524;5.080;2023-02-01T01:56:04;5.12;87.77
66343;DHT22;53144;51.524;5.080;2023-02-01T01:58:32;5.09;87.92
66343;DHT22;53144;51.524;5.080;2023-02-01T02:00:58;5.18;87.84
66343;DHT22;53144;51.524;5.080;2023-02-01T02:03:28;5.20;87.55
66343;DHT22;53144;51.524;5.080;2023-02-01T02:05:57;5.26;87.44
66343;DHT22;53144;51.524;5.080;2023-02-01T02:08:25;5.19;87.55
66343;DHT22;53144;51.524;5.080;2023-02-01T02:10:51;5.30;87.26
66343;DHT22;53144;51.524;5.080;2023-02-01T02:16:38;5.40;86.88
66343;DHT22;53144;51.524;5.080;2023-02-01T02:18:49;5.33;87.00
66343;DHT22;53144;51.524;5.080;2023-02-01T02:21:35;5.39;86.79
66343;DHT22;53144;51.524;5.080;2023-02-01T02:32:53;5.16;87.15
66343;DHT22;53144;51.524;5.080;2023-02-01T02:35:38;5.19;87.11
66343;DHT22;53144;51.524;5.080;2023-02-01T02:41:09;5.24;86.93
66343;DHT22;53144;51.524;5.080;2023-02-01T02:43:58;5.13;87.21
66343;DHT22;53144;51.524;5.080;2023-02-01T02:46:48;5.24;86.96
66343;DHT22;53144;51.524;5.080;2023-02-01T02:49:58;5.15;87.18
66343;DHT22;53144;51.524;5.080;2023-02-01T02:52:51;5.16;87.12
66343;DHT22;53144;51.524;5.080;2023-02-01T02:55:36;5.13;87.26
66343;DHT22;53144;51.524;5.080;2023-02-01T02:58:05;5.23;86.96
66343;DHT22;53144;51.524;5.080;2023-02-01T03:00:50;5.29;86.80
66343;DHT22;53144;51.524;5.080;2023-02-01T03:03:38;5.24;86.82
66343;DHT22;53144;51.524;5.080;2023-02-01T03:06:23;5.18;86.90
66343;DHT22;53144;51.524;5.080;2023-02-01T03:08:48;5.16;87.05
66343;DHT22;53144;51.524;5.080;2023-02-01T03:11:19;5.06;87.40
66343;DHT22;53144;51.524;5.080;2023-02-01T03:13:53;5.03;87.61
66343;DHT22;53144;51.524;5.080;2023-02-01T03:16:31;4.93;87.91
66343;DHT22;53144;51.524;5.080;2023-02-01T03:26:46;4.96;87.76
66343;DHT22;53144;51.524;5.080;2023-02-01T03:29:19;4.96;87.94
66343;DHT22;53144;51.524;5.080;2023-02-01T03:31:46;5.00;87.64
66343;DHT22;53144;51.524;5.080;2023-02-01T03:34:12;4.93;87.89
66343;DHT22;53144;51.524;5.080;2023-02-01T03:37:00;4.91;88.05
66343;DHT22;53144;51.524;5.080;2023-02-01T03:39:34;4.85;88.22
66343;DHT22;53144;51.524;5.080;2023-02-01T03:42:02;4.91;88.05
66343;DHT22;53144;51.524;5.080;2023-02-01T03:44:34;4.82;88.24
66343;DHT22;53144;51.524;5.080;2023-02-01T03:47:08;4.91;88.11
66343;DHT22;53144;51.524;5.080;2023-02-01T03:49:43;4.95;87.96
66343;DHT22;53144;51.524;5.080;2023-02-01T03:52:16;5.08;87.71
66343;DHT22;53144;51.524;5.080;2023-02-01T03:54:44;5.03;87.73
66343;DHT22;53144;51.524;5.080;2023-02-01T03:57:13;4.99;87.75
66343;DHT22;53144;51.524;5.080;2023-02-01T03:59:41;4.96;87.99
66343;DHT22;53144;51.524;5.080;2023-02-01T04:02:07;4.93;88.11
66343;DHT22;53144;51.524;5.080;2023-02-01T04:04:33;4.93;88.09
66343;DHT22;53144;51.524;5.080;2023-02-01T04:06:59;4.81;88.43
66343;DHT22;53144;51.524;5.080;2023-02-01T04:09:24;4.79;88.70
66343;DHT22;53144;51.524;5.080;2023-02-01T04:11:50;4.85;88.52
66343;DHT22;53144;51.524;5.080;2023-02-01T04:14:15;4.84;88.66
66343;DHT22;53144;51.524;5.080;2023-02-01T04:16:41;4.81;88.74
66343;DHT22;53144;51.524;5.080;2023-02-01T04:19:06;4.85;88.63
66343;DHT22;53144;51.524;5.080;2023-02-01T04:21:32;4.89;88.63
66343;DHT22;53144;51.524;5.080;2023-02-01T04:23:57;4.85;88.74
66343;DHT22;53144;51.524;5.080;2023-02-01T04:26:23;4.91;88.60
66343;DHT22;53144;51.524;5.080;2023-02-01T04:28:48;4.82;88.81
66343;DHT22;53144;51.524;5.080;2023-02-01T04:31:15;4.79;88.92
66343;DHT22;53144;51.524;5.080;2023-02-01T04:33:40;4.84;88.86
66343;DHT22;53144;51.524;5.080;2023-02-01T04:36:06;4.78;88.93
66343;DHT22;53144;51.524;5.080;2023-02-01T04:38:31;4.76;89.14
66343;DHT22;53144;51.524;5.080;2023-02-01T04:40:57;4.79;89.21
66343;DHT22;53144;51.524;5.080;2023-02-01T04:43:23;4.68;89.39
66343;DHT22;53144;51.524;5.080;2023-02-01T04:45:49;4.82;89.30
66343;DHT22;53144;51.524;5.080;2023-02-01T04:48:16;4.76;89.40
66343;DHT22;53144;51.524;5.080;2023-02-01T04:50:42;4.82;89.24
66343;DHT22;53144;51.524;5.080;2023-02-01T04:53:10;4.84;89.30
66343;DHT22;53144;51.524;5.080;2023-02-01T04:55:35;4.84;89.39
66343;DHT22;53144;51.524;5.080;2023-02-01T04:58:00;4.91;89.26
66343;DHT22;53144;51.524;5.080;2023-02-01T05:00:26;4.89;89.20
66343;DHT22;53144;51.524;5.080;2023-02-01T05:02:51;4.92;89.17
66343;DHT22;53144;51.524;5.080;2023-02-01T05:05:17;5.12;88.71
66343;DHT22;53144;51.524;5.080;2023-02-01T05:07:42;5.11;88.80
66343;DHT22;53144;51.524;5.080;2023-02-01T05:10:08;5.23;88.38
66343;DHT22;53144;51.524;5.080;2023-02-01T05:12:33;5.32;88.15
66343;DHT22;53144;51.524;5.080;2023-02-01T05:15:17;5.37;88.01
66343;DHT22;53144;51.524;5.080;2023-02-01T05:17:43;5.47;87.58
66343;DHT22;53144;51.524;5.080;2023-02-01T05:20:09;5.53;87.51
66343;DHT22;53144;51.524;5.080;2023-02-01T05:22:35;5.70;86.88
66343;DHT22;53144;51.524;5.080;2023-02-01T05:25:00;5.74;86.93
66343;DHT22;53144;51.524;5.080;2023-02-01T05:27:25;5.71;86.98
66343;DHT22;53144;51.524;5.080;2023-02-01T05:29:51;5.75;86.94
66343;DHT22;53144;51.524;5.080;2023-02-01T05:32:16;5.77;86.89
66343;DHT22;53144;51.524;5.080;2023-02-01T05:34:41;5.73;87.19
66343;DHT22;53144;51.524;5.080;2023-02-01T05:37:07;5.70;87.28
66343;DHT22;53144;51.524;5.080;2023-02-01T05:39:32;5.82;86.97
66343;DHT22;53144;51.524;5.080;2023-02-01T05:41:58;5.84;86.80
66343;DHT22;53144;51.524;5.080;2023-02-01T05:44:23;5.90;86.73
66343;DHT22;53144;51.524;5.080;2023-02-01T05:46:48;5.90;86.69
66343;DHT22;53144;51.524;5.080;2023-02-01T05:49:14;5.94;86.64
66343;DHT22;53144;51.524;5.080;2023-02-01T05:51:39;5.88;86.93
66343;DHT22;53144;51.524;5.080;2023-02-01T05:54:04;5.94;86.85
66343;DHT22;53144;51.524;5.080;2023-02-01T05:56:30;5.95;86.81
66343;DHT22;53144;51.524;5.080;2023-02-01T05:58:55;5.92;86.99
66343;DHT22;53144;51.524;5.080;2023-02-01T06:01:21;5.91;87.30
66343;DHT22;53144;51.524;5.080;2023-02-01T06:03:46;5.79;87.57
66343;DHT22;53144;51.524;5.080;2023-02-01T06:06:11;5.90;87.34
66343;DHT22;53144;51.524;5.080;2023-02-01T06:08:37;5.87;87.34
66343;DHT22;53144;51.524;5.080;2023-02-01T06:11:05;5.81;87.31
66343;DHT22;53144;51.524;5.080;2023-02-01T06:13:32;5.79;87.45
66343;DHT22;53144;51.524;5.080;2023-02-01T06:15:57;5.71;87.71
66343;DHT22;53144;51.524;5.080;2023-02-01T06:18:23;5.63;87.98
66343;DHT22;53144;51.524;5.080;2023-02-01T06:20:56;5.67;87.74
66343;DHT22;53144;51.524;5.080;2023-02-01T06:23:22;5.65;87.77
66343;DHT22;53144;51.524;5.080;2023-02-01T06:25:58;5.67;87.68
66343;DHT22;53144;51.524;5.080;2023-02-01T06:28:24;5.67;87.57
66343;DHT22;53144;51.524;5.080;2023-02-01T06:30:50;5.71;87.62
66343;DHT22;53144;51.524;5.080;2023-02-01T06:33:15;5.79;87.20
66343;DHT22;53144;51.524;5.080;2023-02-01T06:35:42;5.79;87.27
66343;DHT22;53144;51.524;5.080;2023-02-01T06:38:09;5.84;87.15
66343;DHT22;53144;51.524;5.080;2023-02-01T06:40:35;5.75;87.49
66343;DHT22;53144;51.524;5.080;2023-02-01T06:43:00;5.88;86.67
66343;DHT22;53144;51.524;5.080;2023-02-01T06:45:26;5.87;86.67
66343;DHT22;53144;51.524;5.080;2023-02-01T06:47:51;5.87;86.46
66343;DHT22;53144;51.524;5.080;2023-02-01T06:50:17;5.77;86.92
66343;DHT22;53144;51.524;5.080;2023-02-01T06:52:42;5.73;86.86
66343;DHT22;53144;51.524;5.080;2023-02-01T06:55:08;5.87;86.18
66343;DHT22;53144;51.524;5.080;2023-02-01T06:57:33;5.85;86.24
66343;DHT22;53144;51.524;5.080;2023-02-01T07:00:02;5.81;86.27
66343;DHT22;53144;51.524;5.080;2023-02-01T07:02:28;5.79;86.41
66343;DHT22;53144;51.524;5.080;2023-02-01T07:04:53;5.75;86.46
66343;DHT22;53144;51.524;5.080;2023-02-01T07:07:19;5.74;86.38
66343;DHT22;53144;51.524;5.080;2023-02-01T07:09:45;5.67;86.66
66343;DHT22;53144;51.524;5.080;2023-02-01T07:12:11;5.71;86.28
66343;DHT22;53144;51.524;5.080;2023-02-01T07:14:37;5.73;86.36
66343;DHT22;53144;51.524;5.080;2023-02-01T07:17:02;5.74;86.26
66343;DHT22;53144;51.524;5.080;2023-02-01T07:19:28;5.77;86.04
66343;DHT22;53144;51.524;5.080;2023-02-01T07:21:54;5.64;86.45
66343;DHT22;53144;51.524;5.080;2023-02-01T07:24:19;5.64;86.43
66343;DHT22;53144;51.524;5.080;2023-02-01T07:26:44;5.70;86.26
66343;DHT22;53144;51.524;5.080;2023-02-01T07:29:10;5.68;86.15
66343;DHT22;53144;51.524;5.080;2023-02-01T07:31:35;5.70;86.30
66343;DHT22;53144;51.524;5.080;2023-02-01T07:34:00;5.65;86.43
66343;DHT22;53144;51.524;5.080;2023-02-01T07:36:27;5.75;86.22
66343;DHT22;53144;51.524;5.080;2023-02-01T07:38:53;5.79;86.05
66343;DHT22;53144;51.524;5.080;2023-02-01T07:41:18;5.68;86.53
66343;DHT22;53144;51.524;5.080;2023-02-01T07:43:44;5.73;86.35
66343;DHT22;53144;51.524;5.080;2023-02-01T07:46:10;5.74;86.27
66343;DHT22;53144;51.524;5.080;2023-02-01T07:48:36;5.78;86.28
66343;DHT22;53144;51.524;5.080;2023-02-01T07:51:08;5.78;86.28
66343;DHT22;53144;51.524;5.080;2023-02-01T07:53:34;5.78;86.53
66343;DHT22;53144;51.524;5.080;2023-02-01T07:55:59;5.81;86.41
66343;DHT22;53144;51.524;5.080;2023-02-01T07:58:26;5.84;86.22
66343;DHT22;53144;51.524;5.080;2023-02-01T08:00:52;5.84;86.43
66343;DHT22;53144;51.524;5.080;2023-02-01T08:03:36;5.84;86.71
66343;DHT22;53144;51.524;5.080;2023-02-01T08:06:02;5.91;86.42
66343;DHT22;53144;51.524;5.080;2023-02-01T08:08:28;5.91;86.48
66343;DHT22;53144;51.524;5.080;2023-02-01T08:11:00;5.92;86.56
66343;DHT22;53144;51.524;5.080;2023-02-01T08:13:26;5.99;86.45
66343;DHT22;53144;51.524;5.080;2023-02-01T08:15:51;6.02;86.32
66343;DHT22;53144;51.524;5.080;2023-02-01T08:18:17;6.09;86.17
66343;DHT22;53144;51.524;5.080;2023-02-01T08:20:43;6.13;86.01
66343;DHT22;53144;51.524;5.080;2023-02-01T08:23:11;6.13;86.05
66343;DHT22;53144;51.524;5.080;2023-02-01T08:25:37;6.22;85.94
66343;DHT22;53144;51.524;5.080;2023-02-01T08:28:04;6.32;85.81
66343;DHT22;53144;51.524;5.080;2023-02-01T08:30:30;6.37;85.80
66343;DHT22;53144;51.524;5.080;2023-02-01T08:32:55;6.46;85.54
66343;DHT22;53144;51.524;5.080;2023-02-01T08:35:20;6.44;85.52
66343;DHT22;53144;51.524;5.080;2023-02-01T08:37:46;6.50;85.34
66343;DHT22;53144;51.524;5.080;2023-02-01T08:40:11;6.56;85.42
66343;DHT22;53144;51.524;5.080;2023-02-01T08:42:38;6.64;85.22
66343;DHT22;53144;51.524;5.080;2023-02-01T08:45:21;6.66;85.32
66343;DHT22;53144;51.524;5.080;2023-02-01T08:47:49;6.76;84.81
66343;DHT22;53144;51.524;5.080;2023-02-01T08:50:15;6.76;84.74
66343;DHT22;53144;51.524;5.080;2023-02-01T08:52:40;6.73;85.30
66343;DHT22;53144;51.524;5.080;2023-02-01T08:55:06;6.69;85.26
66343;DHT22;53144;51.524;5.080;2023-02-01T08:57:33;6.71;85.23
66343;DHT22;53144;51.524;5.080;2023-02-01T08:59:58;6.73;84.84
66343;DHT22;53144;51.524;5.080;2023-02-01T09:02:24;6.73;85.13
66343;DHT22;53144;51.524;5.080;2023-02-01T09:04:49;6.74;85.03
66343;DHT22;53144;51.524;5.080;2023-02-01T09:07:15;6.77;85.23
66343;DHT22;53144;51.524;5.080;2023-02-01T09:09:41;6.83;85.33
66343;DHT22;53144;51.524;5.080;2023-02-01T09:12:07;6.87;84.84
66343;DHT22;53144;51.524;5.080;2023-02-01T09:14:33;6.90;84.88
66343;DHT22;53144;51.524;5.080;2023-02-01T09:16:58;6.97;84.65
66343;DHT22;53144;51.524;5.080;2023-02-01T09:19:24;6.95;84.51
66343;DHT22;53144;51.524;5.080;2023-02-01T09:21:49;7.04;84.23
66343;DHT22;53144;51.524;5.080;2023-02-01T09:24:14;7.01;84.12
66343;DHT22;53144;51.524;5.080;2023-02-01T09:26:40;7.07;84.11
66343;DHT22;53144;51.524;5.080;2023-02-01T09:29:05;7.09;84.23
66343;DHT22;53144;51.524;5.080;2023-02-01T09:31:38;7.09;84.30
66343;DHT22;53144;51.524;5.080;2023-02-01T09:34:05;7.14;83.82
66343;DHT22;53144;51.524;5.080;2023-02-01T09:36:30;7.09;84.21
66343;DHT22;53144;51.524;5.080;2023-02-01T09:38:56;7.16;84.20
66343;DHT22;53144;51.524;5.080;2023-02-01T09:41:54;7.36;82.86
66343;DHT22;53144;51.524;5.080;2023-02-01T09:47:20;7.60;82.49
66343;DHT22;53144;51.524;5.080;2023-02-01T09:49:56;7.76;81.59
66343;DHT22;53144;51.524;5.080;2023-02-01T09:52:29;7.79;81.47
66343;DHT22;53144;51.524;5.080;2023-02-01T09:55:00;7.94;80.88
66343;DHT22;53144;51.524;5.080;2023-02-01T09:57:41;8.00;80.74
66343;DHT22;53144;51.524;5.080;2023-02-01T10:00:20;8.22;79.12
66343;DHT22;53144;51.524;5.080;2023-02-01T10:02:49;8.25;79.20
66343;DHT22;53144;51.524;5.080;2023-02-01T10:05:18;8.60;78.86
66343;DHT22;53144;51.524;5.080;2023-02-01T10:10:39;8.07;79.80
66343;DHT22;53144;51.524;5.080;2023-02-01T10:16:16;8.31;79.53
66343;DHT22;53144;51.524;5.080;2023-02-01T10:18:55;8.17;79.43
66343;DHT22;53144;51.524;5.080;2023-02-01T10:21:35;8.11;79.79
66343;DHT22;53144;51.524;5.080;2023-02-01T10:27:19;8.02;78.84
66343;DHT22;53144;51.524;5.080;2023-02-01T10:29:51;8.00;79.22
66343;DHT22;53144;51.524;5.080;2023-02-01T10:32:22;7.91;79.40
66343;DHT22;53144;51.524;5.080;2023-02-01T10:34:57;7.90;79.05
66343;DHT22;53144;51.524;5.080;2023-02-01T10:37:31;7.93;79.53
66343;DHT22;53144;51.524;5.080;2023-02-01T10:40:12;7.83;79.52
66343;DHT22;53144;51.524;5.080;2023-02-01T10:42:40;7.86;79.43
66343;DHT22;53144;51.524;5.080;2023-02-01T10:45:06;7.91;79.50
66343;DHT22;53144;51.524;5.080;2023-02-01T10:47:32;7.94;79.32
66343;DHT22;53144;51.524;5.080;2023-02-01T10:53:01;7.90;79.35
66343;DHT22;53144;51.524;5.080;2023-02-01T10:55:38;7.91;79.61
66343;DHT22;53144;51.524;5.080;2023-02-01T10:58:07;8.01;79.30
66343;DHT22;53144;51.524;5.080;2023-02-01T11:00:45;8.02;79.43
66343;DHT22;53144;51.524;5.080;2023-02-01T11:06:16;8.05;79.76
66343;DHT22;53144;51.524;5.080;2023-02-01T11:08:49;8.08;79.28
66343;DHT22;53144;51.524;5.080;2023-02-01T11:11:15;8.00;79.29
66343;DHT22;53144;51.524;5.080;2023-02-01T11:13:41;7.95;79.35
66343;DHT22;53144;51.524;5.080;2023-02-01T11:16:12;7.89;79.45
66343;DHT22;53144;51.524;5.080;2023-02-01T11:18:38;7.93;80.04
66343;DHT22;53144;51.524;5.080;2023-02-01T11:21:08;7.97;79.80
66343;DHT22;53144;51.524;5.080;2023-02-01T11:23:40;8.02;79.67
66343;DHT22;53144;51.524;5.080;2023-02-01T11:28:40;8.11;79.15
66343;DHT22;53144;51.524;5.080;2023-02-01T11:31:10;8.15;79.18
66343;DHT22;53144;51.524;5.080;2023-02-01T11:33:38;8.08;79.40
66343;DHT22;53144;51.524;5.080;2023-02-01T11:36:14;8.08;79.20
66343;DHT22;53144;51.524;5.080;2023-02-01T11:39:07;8.08;79.59
66343;DHT22;53144;51.524;5.080;2023-02-01T11:41:30;8.02;79.39
66343;DHT22;53144;51.524;5.080;2023-02-01T11:43:59;8.01;79.62
66343;DHT22;53144;51.524;5.080;2023-02-01T11:46:33;8.05;79.46
66343;DHT22;53144;51.524;5.080;2023-02-01T11:49:22;8.08;79.09
66343;DHT22;53144;51.524;5.080;2023-02-01T11:52:13;8.14;79.13
66343;DHT22;53144;51.524;5.080;2023-02-01T11:55:14;8.11;79.16
66343;DHT22;53144;51.524;5.080;2023-02-01T12:09:21;8.05;78.76
66343;DHT22;53144;51.524;5.080;2023-02-01T12:12:22;8.08;78.62
66343;DHT22;53144;51.524;5.080;2023-02-01T12:15:27;8.04;78.88
66343;DHT22;53144;51.524;5.080;2023-02-01T12:23:20;8.12;79.25
66343;DHT22;53144;51.524;5.080;2023-02-01T12:39:40;8.25;78.30
66343;DHT22;53144;51.524;5.080;2023-02-01T12:42:20;8.31;78.23
66343;DHT22;53144;51.524;5.080;2023-02-01T12:45:12;8.30;78.00
66343;DHT22;53144;51.524;5.080;2023-02-01T12:47:53;8.34;78.02
66343;DHT22;53144;51.524;5.080;2023-02-01T12:50:43;8.37;78.05
66343;DHT22;53144;51.524;5.080;2023-02-01T12:55:55;8.42;77.84
66343;DHT22;53144;51.524;5.080;2023-02-01T12:58:40;8.52;78.06
66343;DHT22;53144;51.524;5.080;2023-02-01T13:01:14;8.56;77.43
66343;DHT22;53144;51.524;5.080;2023-02-01T13:04:03;8.58;77.35
66343;DHT22;53144;51.524;5.080;2023-02-01T13:06:37;8.73;77.49
66343;DHT22;53144;51.524;5.080;2023-02-01T13:11:35;8.76;77.53
66343;DHT22;53144;51.524;5.080;2023-02-01T13:14:18;8.75;77.39
66343;DHT22;53144;51.524;5.080;2023-02-01T13:16:49;8.76;77.35
66343;DHT22;53144;51.524;5.080;2023-02-01T13:19:29;8.53;77.78
66343;DHT22;53144;51.524;5.080;2023-02-01T13:22:00;8.66;77.81
66343;DHT22;53144;51.524;5.080;2023-02-01T13:24:36;8.66;77.80
66343;DHT22;53144;51.524;5.080;2023-02-01T13:27:03;8.70;78.07
66343;DHT22;53144;51.524;5.080;2023-02-01T13:29:29;8.91;77.62
66343;DHT22;53144;51.524;5.080;2023-02-01T13:32:25;8.83;77.07
66343;DHT22;53144;51.524;5.080;2023-02-01T13:35:41;8.87;77.27
66343;DHT22;53144;51.524;5.080;2023-02-01T13:43:09;8.91;76.85
66343;DHT22;53144;51.524;5.080;2023-02-01T13:45:46;8.91;77.29
66343;DHT22;53144;51.524;5.080;2023-02-01T13:48:20;8.81;77.60
66343;DHT22;53144;51.524;5.080;2023-02-01T13:50:51;8.75;77.36
66343;DHT22;53144;51.524;5.080;2023-02-01T13:53:26;8.63;78.05
66343;DHT22;53144;51.524;5.080;2023-02-01T13:56:00;8.65;78.23
66343;DHT22;53144;51.524;5.080;2023-02-01T13:58:35;8.49;78.41
66343;DHT22;53144;51.524;5.080;2023-02-01T14:03:54;8.51;79.27
66343;DHT22;53144;51.524;5.080;2023-02-01T14:11:45;8.38;79.26
66343;DHT22;53144;51.524;5.080;2023-02-01T14:19:28;8.35;79.89
66343;DHT22;53144;51.524;5.080;2023-02-01T14:22:31;8.34;79.61
66343;DHT22;53144;51.524;5.080;2023-02-01T14:24:50;8.35;79.81
66343;DHT22;53144;51.524;5.080;2023-02-01T14:27:21;8.34;79.87
66343;DHT22;53144;51.524;5.080;2023-02-01T14:29:52;8.35;79.87
66343;DHT22;53144;51.524;5.080;2023-02-01T14:32:24;8.38;79.96
66343;DHT22;53144;51.524;5.080;2023-02-01T14:34:53;8.38;79.55
66343;DHT22;53144;51.524;5.080;2023-02-01T14:42:33;8.37;79.40
66343;DHT22;53144;51.524;5.080;2023-02-01T14:58:25;8.37;79.56
66343;DHT22;53144;51.524;5.080;2023-02-01T15:00:55;8.39;79.20
66343;DHT22;53144;51.524;5.080;2023-02-01T15:06:21;8.35;80.08
66343;DHT22;53144;51.524;5.080;2023-02-01T15:08:48;8.38;79.46
66343;DHT22;53144;51.524;5.080;2023-02-01T15:11:15;8.34;79.85
66343;DHT22;53144;51.524;5.080;2023-02-01T15:13:48;8.31;80.08
66343;DHT22;53144;51.524;5.080;2023-02-01T15:16:16;8.37;79.96
66343;DHT22;53144;51.524;5.080;2023-02-01T15:18:41;8.39;80.04
66343;DHT22;53144;51.524;5.080;2023-02-01T15:21:16;8.34;80.15
66343;DHT22;53144;51.524;5.080;2023-02-01T15:23:43;8.32;80.29
66343;DHT22;53144;51.524;5.080;2023-02-01T15:26:08;8.35;80.20
66343;DHT22;53144;51.524;5.080;2023-02-01T15:28:33;8.34;80.34
66343;DHT22;53144;51.524;5.080;2023-02-01T15:31:01;8.31;80.44
66343;DHT22;53144;51.524;5.080;2023-02-01T15:33:28;8.27;80.60
66343;DHT22;53144;51.524;5.080;2023-02-01T15:36:17;8.27;80.79
66343;DHT22;53144;51.524;5.080;2023-02-01T15:38:41;8.27;80.66
66343;DHT22;53144;51.524;5.080;2023-02-01T15:41:18;8.25;80.80
66343;DHT22;53144;51.524;5.080;2023-02-01T15:46:24;8.20;81.10
66343;DHT22;53144;51.524;5.080;2023-02-01T15:48:54;8.21;81.35
66343;DHT22;53144;51.524;5.080;2023-02-01T15:51:22;8.14;81.65
66343;DHT22;53144;51.524;5.080;2023-02-01T15:53:53;8.17;81.64
66343;DHT22;53144;51.524;5.080;2023-02-01T15:56:27;8.12;81.75
66343;DHT22;53144;51.524;5.080;2023-02-01T15:58:59;8.12;81.89
66343;DHT22;53144;51.524;5.080;2023-02-01T16:01:26;8.05;82.32
66343;DHT22;53144;51.524;5.080;2023-02-01T16:04:04;8.05;82.55
66343;DHT22;53144;51.524;5.080;2023-02-01T16:06:31;8.00;82.90
66343;DHT22;53144;51.524;5.080;2023-02-01T16:11:27;8.00;82.68
66343;DHT22;53144;51.524;5.080;2023-02-01T16:13:54;8.04;83.01
66343;DHT22;53144;51.524;5.080;2023-02-01T16:16:20;7.94;83.17
66343;DHT22;53144;51.524;5.080;2023-02-01T16:18:46;7.93;83.15
66343;DHT22;53144;51.524;5.080;2023-02-01T16:21:11;7.97;83.26
66343;DHT22;53144;51.524;5.080;2023-02-01T16:23:37;7.97;83.03
66343;DHT22;53144;51.524;5.080;2023-02-01T16:26:04;7.97;83.16
66343;DHT22;53144;51.524;5.080;2023-02-01T16:28:31;7.98;82.92
66343;DHT22;53144;51.524;5.080;2023-02-01T16:30:56;7.95;83.34
66343;DHT22;53144;51.524;5.080;2023-02-01T16:33:22;7.95;82.97
66343;DHT22;53144;51.524;5.080;2023-02-01T16:35:49;7.98;83.01
66343;DHT22;53144;51.524;5.080;2023-02-01T16:38:15;7.98;83.03
66343;DHT22;53144;51.524;5.080;2023-02-01T16:40:44;7.98;83.16
66343;DHT22;53144;51.524;5.080;2023-02-01T16:45:40;8.00;83.04
66343;DHT22;53144;51.524;5.080;2023-02-01T16:48:07;8.01;83.00
66343;DHT22;53144;51.524;5.080;2023-02-01T16:50:33;7.98;83.07
66343;DHT22;53144;51.524;5.080;2023-02-01T16:52:58;7.98;83.05
66343;DHT22;53144;51.524;5.080;2023-02-01T16:55:24;7.98;83.35
66343;DHT22;53144;51.524;5.080;2023-02-01T16:57:51;8.00;82.99
66343;DHT22;53144;51.524;5.080;2023-02-01T17:00:16;7.98;83.02
66343;DHT22;53144;51.524;5.080;2023-02-01T17:02:42;7.98;83.31
66343;DHT22;53144;51.524;5.080;2023-02-01T17:05:09;7.94;83.41
66343;DHT22;53144;51.524;5.080;2023-02-01T17:07:35;7.93;83.33
66343;DHT22;53144;51.524;5.080;2023-02-01T17:10:04;7.95;83.16
66343;DHT22;53144;51.524;5.080;2023-02-01T17:12:31;7.93;83.39
66343;DHT22;53144;51.524;5.080;2023-02-01T17:14:57;7.94;83.40
66343;DHT22;53144;51.524;5.080;2023-02-01T17:17:24;7.86;83.67
66343;DHT22;53144;51.524;5.080;2023-02-01T17:19:51;7.86;83.91
66343;DHT22;53144;51.524;5.080;2023-02-01T17:22:19;7.79;83.90
66343;DHT22;53144;51.524;5.080;2023-02-01T17:24:45;7.77;84.13
66343;DHT22;53144;51.524;5.080;2023-02-01T17:27:11;7.76;84.21
66343;DHT22;53144;51.524;5.080;2023-02-01T17:29:38;7.73;84.34
66343;DHT22;53144;51.524;5.080;2023-02-01T17:32:05;7.73;84.29
66343;DHT22;53144;51.524;5.080;2023-02-01T17:34:30;7.81;84.08
66343;DHT22;53144;51.524;5.080;2023-02-01T17:36:56;7.77;84.18
66343;DHT22;53144;51.524;5.080;2023-02-01T17:39:21;7.79;84.26
66343;DHT22;53144;51.524;5.080;2023-02-01T17:42:09;7.80;84.19
66343;DHT22;53144;51.524;5.080;2023-02-01T17:44:35;7.83;83.95
66343;DHT22;53144;51.524;5.080;2023-02-01T17:47:01;7.91;83.72
66343;DHT22;53144;51.524;5.080;2023-02-01T17:49:26;7.87;84.00
66343;DHT22;53144;51.524;5.080;2023-02-01T17:51:56;7.90;83.82
66343;DHT22;53144;51.524;5.080;2023-02-01T17:54:21;7.89;83.90
66343;DHT22;53144;51.524;5.080;2023-02-01T17:56:47;7.90;83.92
66343;DHT22;53144;51.524;5.080;2023-02-01T17:59:13;7.86;84.14
66343;DHT22;53144;51.524;5.080;2023-02-01T18:01:39;7.86;84.13
66343;DHT22;53144;51.524;5.080;2023-02-01T18:04:08;7.89;84.23
66343;DHT22;53144;51.524;5.080;2023-02-01T18:06:35;7.83;84.37
66343;DHT22;53144;51.524;5.080;2023-02-01T18:09:01;7.93;84.07